Nordlys — YJTS2 — position and weather

sailwx.info

Track history (hours):
 
Tides and Currents Weather Stations Pressure Air Temp Water Temp Dewpoint Dewpoint Depression Visibility Wind Speed Wind Dir Waves Ship Positions

Nordlys

Ship's website: http://fairtransport.eu/category/nordlys/

Last reported at 2017-Jul-28 02:53 UTC. Time now 2017-Jul-28 06:34 UTC.
Position N 57°20' E 011°23'.

; draft 2.7 m.

MMSI: 577228000.

Date/timePositionNaut miles runAvg speedWind from/ knotsBaromVisibWave heightAir tempDewpointWater temp
2017-Jul-28 02:53N 57°20' E 011°23'2 4.4
2017-Jul-28 02:30N 57°22' E 011°22'2 4.4
2017-Jul-28 02:00N 57°24' E 011°22'2 4.0
2017-Jul-28 01:29N 57°26' E 011°20'1 2.8
2017-Jul-28 01:00N 57°27' E 011°20'1 3.0
2017-Jul-28 00:30N 57°28' E 011°19'1 2.9
2017-Jul-28 00:00N 57°30' E 011°20'2 4.1
2017-Jul-27 23:30N 57°32' E 011°20'2 4.6
2017-Jul-27 23:00N 57°34' E 011°20'2 4.9
2017-Jul-27 22:30N 57°37' E 011°20'3 5.1
2017-Jul-27 22:00N 57°39' E 011°21'3 4.9
2017-Jul-27 21:28N 57°42' E 011°20'2 4.1
2017-Jul-27 21:00N 57°44' E 011°20'1 2.6
2017-Jul-27 20:30N 57°45' E 011°20'1 2.0
2017-Jul-27 20:00N 57°46' E 011°19'1 1.5
2017-Jul-27 19:30N 57°47' E 011°19'1 1.8
2017-Jul-27 18:59N 57°46' E 011°20'2 3.9
2017-Jul-27 18:30N 57°47' E 011°23'2 3.9
2017-Jul-27 18:00N 57°48' E 011°27'1 2.9
2017-Jul-27 17:30N 57°48' E 011°29'1 1.7
2017-Jul-27 17:00N 57°49' E 011°30'2 4.7
2017-Jul-27 16:30N 57°49' E 011°26'3 5.4
2017-Jul-27 15:59N 57°50' E 011°21'3 6.1
2017-Jul-27 15:29N 57°50' E 011°15'3 7.1
2017-Jul-27 14:59N 57°50' E 011°09'7 6.8
2017-Jul-27 14:00N 57°49' E 010°56'3 7.1
2017-Jul-27 13:30N 57°48' E 010°50'3 6.0
2017-Jul-27 12:57N 57°48' E 010°43'3 6.1
2017-Jul-27 12:30N 57°49' E 010°38'3 5.5
2017-Jul-27 11:58N 57°48' E 010°33'3 6.1
2017-Jul-27 11:30N 57°47' E 010°29'3 6.6
2017-Jul-27 11:00N 57°45' E 010°23'4 6.2
2017-Jul-27 10:23N 57°43' E 010°16'2 6.0
2017-Jul-27 09:59N 57°42' E 010°12'3 5.9
2017-Jul-27 09:30N 57°41' E 010°08'3 6.0
2017-Jul-27 09:00N 57°40' E 010°03'3 5.9
2017-Jul-27 08:29N 57°38' E 009°58'4 5.5
2017-Jul-27 07:42N 57°35' E 009°52'1 5.7
2017-Jul-27 07:30N 57°35' E 009°50'3 6.1
2017-Jul-27 07:00N 57°33' E 009°45'3 6.1
2017-Jul-27 06:30N 57°31' E 009°41'3 6.1
2017-Jul-27 05:58N 57°29' E 009°36'3 6.0
2017-Jul-27 05:27N 57°27' E 009°32'51 3.3
2017-Jul-26 13:45N 57°38' E 007°58'1 4.0
2017-Jul-26 13:29N 57°37' E 007°57'  
2017-Jul-24 06:31N 56°04' E 007°07'0 4.6
2017-Jul-24 06:29N 56°04' E 007°07'2 4.5
2017-Jul-24 05:59N 56°02' E 007°05'2 4.4
2017-Jul-24 05:31N 56°00' E 007°04'2 3.7
2017-Jul-24 04:59N 55°58' E 007°03'151 3.5
2017-Jul-22 10:25N 53°42' E 005°09'0 0.9
2017-Jul-22 09:58N 53°42' E 005°09'0 0.6
2017-Jul-22 09:26N 53°42' E 005°09'1 1.6
2017-Jul-22 09:00N 53°41' E 005°08'2 3.0
2017-Jul-22 08:22N 53°40' E 005°07'2 3.7
2017-Jul-22 07:52N 53°38' E 005°05'1 4.0
2017-Jul-22 07:30N 53°37' E 005°03'2 3.5
2017-Jul-22 07:00N 53°36' E 005°01'39 3.7
2017-Jul-21 20:37N 53°00' E 004°34'2 4.7
2017-Jul-21 20:12N 52°58' E 004°35'1 5.1
2017-Jul-21 19:56N 52°57' E 004°35'2 4.4
2017-Jul-21 19:30N 52°55' E 004°35'2 4.0
2017-Jul-21 19:00N 52°53' E 004°37'2 4.1
2017-Jul-21 18:30N 52°55' E 004°39'3 5.3
2017-Jul-21 18:00N 52°57' E 004°42'2 2.5
2017-Jul-21 17:21N 52°58' E 004°44'1 2.2
2017-Jul-21 17:00N 52°58' E 004°45'1 1.3
2017-Jul-21 16:20N 52°59' E 004°47'1 3.1
2017-Jul-21 16:00N 52°58' E 004°47'1 1.8
2017-Jul-21 15:28N 52°57' E 004°47'1 1.2
2017-Jul-21 15:00N 52°57' E 004°47'0 0.6
2017-Jul-21 14:28N 52°57' E 004°46'0 0.0
2017-Jul-21 13:58N 52°57' E 004°46'0 0.0
2017-Jul-21 13:28N 52°57' E 004°46'0 0.0
2017-Jul-21 12:57N 52°57' E 004°46'0 0.0
2017-Jul-21 11:45N 52°57' E 004°46'0 0.0
2017-Jul-21 11:28N 52°57' E 004°46'0 0.0
2017-Jul-21 10:40N 52°57' E 004°46'0 0.0
2017-Jul-21 10:15N 52°57' E 004°46'0 0.0
2017-Jul-21 09:51N 52°57' E 004°46'0 0.0
2017-Jul-21 09:15N 52°57' E 004°46'0 0.0
2017-Jul-21 08:58N 52°57' E 004°46'0 0.0
2017-Jul-21 08:27N 52°57' E 004°46'0 0.0
2017-Jul-21 07:58N 52°57' E 004°46'0 0.0
2017-Jul-21 07:28N 52°57' E 004°46'0 0.0
2017-Jul-21 06:34N 52°57' E 004°46'0 0.0
2017-Jul-21 06:15N 52°57' E 004°46'0 0.0
2017-Jul-21 05:57N 52°57' E 004°46'0 0.0
2017-Jul-21 05:22N 52°57' E 004°46'0 0.0
2017-Jul-21 04:58N 52°57' E 004°46'0 0.0
2017-Jul-21 02:46N 52°57' E 004°46'0 0.0
2017-Jul-21 02:28N 52°57' E 004°46'0 0.0
2017-Jul-21 01:10N 52°57' E 004°46'0 0.0
2017-Jul-21 00:52N 52°57' E 004°46'0 0.0
2017-Jul-21 00:28N 52°57' E 004°46'0 0.0
2017-Jul-20 23:58N 52°57' E 004°46'0 0.0
2017-Jul-20 23:16N 52°57' E 004°46'0 0.0
2017-Jul-20 22:51N 52°57' E 004°46'0 0.0
2017-Jul-20 22:27N 52°57' E 004°46'0 0.0
2017-Jul-20 21:46N 52°57' E 004°46'0 0.0
2017-Jul-20 21:21N 52°57' E 004°46'0 0.0
2017-Jul-20 20:57N 52°57' E 004°46'0 0.0
2017-Jul-20 20:28N 52°57' E 004°46'0 0.0
2017-Jul-20 19:45N 52°57' E 004°46'0 0.0
2017-Jul-20 19:28N 52°57' E 004°46'0 0.0
2017-Jul-20 18:33N 52°57' E 004°46'0 0.0
2017-Jul-20 18:21N 52°57' E 004°46'0 0.0
2017-Jul-20 17:10N 52°57' E 004°46'0 0.0
2017-Jul-20 16:45N 52°57' E 004°46'0 0.0
2017-Jul-20 16:15N 52°57' E 004°46'0 0.0
2017-Jul-20 15:51N 52°57' E 004°46'0 0.0
2017-Jul-20 15:27N 52°57' E 004°46'0 0.0
2017-Jul-20 14:52N 52°57' E 004°46'0 0.0
2017-Jul-20 12:57N 52°57' E 004°46'0 0.0
2017-Jul-20 12:27N 52°57' E 004°46'0 0.0
2017-Jul-20 11:46N 52°57' E 004°46'0 0.0
2017-Jul-20 11:21N 52°57' E 004°46'0 0.0
2017-Jul-20 10:57N 52°57' E 004°46'0 0.0
2017-Jul-20 10:27N 52°57' E 004°46'0 0.0
2017-Jul-20 09:57N 52°57' E 004°46'0 0.0
2017-Jul-20 06:34N 52°58' E 004°46'0 0.0
2017-Jul-20 04:22N 52°58' E 004°46'0 0.0
2017-Jul-20 03:52N 52°58' E 004°46'0 0.0
2017-Jul-20 03:16N 52°58' E 004°46'0 0.0
2017-Jul-20 02:46N 52°58' E 004°46'0 0.0
2017-Jul-20 02:22N 52°58' E 004°46'0 0.0
2017-Jul-20 01:58N 52°58' E 004°46'0 0.0
2017-Jul-20 01:22N 52°58' E 004°46'0 0.0
2017-Jul-20 00:58N 52°58' E 004°46'0 0.0
2017-Jul-19 22:28N 52°58' E 004°46'0 0.0
2017-Jul-19 21:58N 52°58' E 004°46'0 0.0
2017-Jul-19 21:28N 52°58' E 004°46'0 0.0
2017-Jul-19 20:41N 52°58' E 004°46'0 0.0
2017-Jul-19 20:28N 52°58' E 004°46'0 0.0
2017-Jul-18 17:17N 52°58' E 004°46'0 0.0
2017-Jul-18 16:59N 52°58' E 004°46'0 0.0
2017-Jul-18 16:23N 52°58' E 004°46'  
Track history (hours):
 
Tides and Currents Weather Stations Pressure Air Temp Water Temp Dewpoint Dewpoint Depression Visibility Wind Speed Wind Dir Waves Ship Positions

Nordlys

Ship's website: http://fairtransport.eu/category/nordlys/

Last reported at 2017-Jul-28 02:53 UTC. Time now 2017-Jul-28 06:34 UTC.
Position N 57°20' E 011°23'.

; draft 2.7 m.

MMSI: 577228000.

Date/timePositionNaut miles runAvg speedWind from/ knotsBaromVisibWave heightAir tempDewpointWater temp
2017-Jul-28 02:53N 57°20' E 011°23'2 4.4
2017-Jul-28 02:30N 57°22' E 011°22'2 4.4
2017-Jul-28 02:00N 57°24' E 011°22'2 4.0
2017-Jul-28 01:29N 57°26' E 011°20'1 2.8
2017-Jul-28 01:00N 57°27' E 011°20'1 3.0
2017-Jul-28 00:30N 57°28' E 011°19'1 2.9
2017-Jul-28 00:00N 57°30' E 011°20'2 4.1
2017-Jul-27 23:30N 57°32' E 011°20'2 4.6
2017-Jul-27 23:00N 57°34' E 011°20'2 4.9
2017-Jul-27 22:30N 57°37' E 011°20'3 5.1
2017-Jul-27 22:00N 57°39' E 011°21'3 4.9
2017-Jul-27 21:28N 57°42' E 011°20'2 4.1
2017-Jul-27 21:00N 57°44' E 011°20'1 2.6
2017-Jul-27 20:30N 57°45' E 011°20'1 2.0
2017-Jul-27 20:00N 57°46' E 011°19'1 1.5
2017-Jul-27 19:30N 57°47' E 011°19'1 1.8
2017-Jul-27 18:59N 57°46' E 011°20'2 3.9
2017-Jul-27 18:30N 57°47' E 011°23'2 3.9
2017-Jul-27 18:00N 57°48' E 011°27'1 2.9
2017-Jul-27 17:30N 57°48' E 011°29'1 1.7
2017-Jul-27 17:00N 57°49' E 011°30'2 4.7
2017-Jul-27 16:30N 57°49' E 011°26'3 5.4
2017-Jul-27 15:59N 57°50' E 011°21'3 6.1
2017-Jul-27 15:29N 57°50' E 011°15'3 7.1
2017-Jul-27 14:59N 57°50' E 011°09'7 6.8
2017-Jul-27 14:00N 57°49' E 010°56'3 7.1
2017-Jul-27 13:30N 57°48' E 010°50'3 6.0
2017-Jul-27 12:57N 57°48' E 010°43'3 6.1
2017-Jul-27 12:30N 57°49' E 010°38'3 5.5
2017-Jul-27 11:58N 57°48' E 010°33'3 6.1
2017-Jul-27 11:30N 57°47' E 010°29'3 6.6
2017-Jul-27 11:00N 57°45' E 010°23'4 6.2
2017-Jul-27 10:23N 57°43' E 010°16'2 6.0
2017-Jul-27 09:59N 57°42' E 010°12'3 5.9
2017-Jul-27 09:30N 57°41' E 010°08'3 6.0
2017-Jul-27 09:00N 57°40' E 010°03'3 5.9
2017-Jul-27 08:29N 57°38' E 009°58'4 5.5
2017-Jul-27 07:42N 57°35' E 009°52'1 5.7
2017-Jul-27 07:30N 57°35' E 009°50'3 6.1
2017-Jul-27 07:00N 57°33' E 009°45'3 6.1
2017-Jul-27 06:30N 57°31' E 009°41'3 6.1
2017-Jul-27 05:58N 57°29' E 009°36'3 6.0
2017-Jul-27 05:27N 57°27' E 009°32'51 3.3
2017-Jul-26 13:45N 57°38' E 007°58'1 4.0
2017-Jul-26 13:29N 57°37' E 007°57'  
2017-Jul-24 06:31N 56°04' E 007°07'0 4.6
2017-Jul-24 06:29N 56°04' E 007°07'2 4.5
2017-Jul-24 05:59N 56°02' E 007°05'2 4.4
2017-Jul-24 05:31N 56°00' E 007°04'2 3.7
2017-Jul-24 04:59N 55°58' E 007°03'151 3.5
2017-Jul-22 10:25N 53°42' E 005°09'0 0.9
2017-Jul-22 09:58N 53°42' E 005°09'0 0.6
2017-Jul-22 09:26N 53°42' E 005°09'1 1.6
2017-Jul-22 09:00N 53°41' E 005°08'2 3.0
2017-Jul-22 08:22N 53°40' E 005°07'2 3.7
2017-Jul-22 07:52N 53°38' E 005°05'1 4.0
2017-Jul-22 07:30N 53°37' E 005°03'2 3.5
2017-Jul-22 07:00N 53°36' E 005°01'39 3.7
2017-Jul-21 20:37N 53°00' E 004°34'2 4.7
2017-Jul-21 20:12N 52°58' E 004°35'1 5.1
2017-Jul-21 19:56N 52°57' E 004°35'2 4.4
2017-Jul-21 19:30N 52°55' E 004°35'2 4.0
2017-Jul-21 19:00N 52°53' E 004°37'2 4.1
2017-Jul-21 18:30N 52°55' E 004°39'3 5.3
2017-Jul-21 18:00N 52°57' E 004°42'2 2.5
2017-Jul-21 17:21N 52°58' E 004°44'1 2.2
2017-Jul-21 17:00N 52°58' E 004°45'1 1.3
2017-Jul-21 16:20N 52°59' E 004°47'1 3.1
2017-Jul-21 16:00N 52°58' E 004°47'1 1.8
2017-Jul-21 15:28N 52°57' E 004°47'1 1.2
2017-Jul-21 15:00N 52°57' E 004°47'0 0.6
2017-Jul-21 14:28N 52°57' E 004°46'0 0.0
2017-Jul-21 13:58N 52°57' E 004°46'0 0.0
2017-Jul-21 13:28N 52°57' E 004°46'0 0.0
2017-Jul-21 12:57N 52°57' E 004°46'0 0.0
2017-Jul-21 11:45N 52°57' E 004°46'0 0.0
2017-Jul-21 11:28N 52°57' E 004°46'0 0.0
2017-Jul-21 10:40N 52°57' E 004°46'0 0.0
2017-Jul-21 10:15N 52°57' E 004°46'0 0.0
2017-Jul-21 09:51N 52°57' E 004°46'0 0.0
2017-Jul-21 09:15N 52°57' E 004°46'0 0.0
2017-Jul-21 08:58N 52°57' E 004°46'0 0.0
2017-Jul-21 08:27N 52°57' E 004°46'0 0.0
2017-Jul-21 07:58N 52°57' E 004°46'0 0.0
2017-Jul-21 07:28N 52°57' E 004°46'0 0.0
2017-Jul-21 06:34N 52°57' E 004°46'0 0.0
2017-Jul-21 06:15N 52°57' E 004°46'0 0.0
2017-Jul-21 05:57N 52°57' E 004°46'0 0.0
2017-Jul-21 05:22N 52°57' E 004°46'0 0.0
2017-Jul-21 04:58N 52°57' E 004°46'0 0.0
2017-Jul-21 02:46N 52°57' E 004°46'0 0.0
2017-Jul-21 02:28N 52°57' E 004°46'0 0.0
2017-Jul-21 01:10N 52°57' E 004°46'0 0.0
2017-Jul-21 00:52N 52°57' E 004°46'0 0.0
2017-Jul-21 00:28N 52°57' E 004°46'0 0.0
2017-Jul-20 23:58N 52°57' E 004°46'0 0.0
2017-Jul-20 23:16N 52°57' E 004°46'0 0.0
2017-Jul-20 22:51N 52°57' E 004°46'0 0.0
2017-Jul-20 22:27N 52°57' E 004°46'0 0.0
2017-Jul-20 21:46N 52°57' E 004°46'0 0.0
2017-Jul-20 21:21N 52°57' E 004°46'0 0.0
2017-Jul-20 20:57N 52°57' E 004°46'0 0.0
2017-Jul-20 20:28N 52°57' E 004°46'0 0.0
2017-Jul-20 19:45N 52°57' E 004°46'0 0.0
2017-Jul-20 19:28N 52°57' E 004°46'0 0.0
2017-Jul-20 18:33N 52°57' E 004°46'0 0.0
2017-Jul-20 18:21N 52°57' E 004°46'0 0.0
2017-Jul-20 17:10N 52°57' E 004°46'0 0.0
2017-Jul-20 16:45N 52°57' E 004°46'0 0.0
2017-Jul-20 16:15N 52°57' E 004°46'0 0.0
2017-Jul-20 15:51N 52°57' E 004°46'0 0.0
2017-Jul-20 15:27N 52°57' E 004°46'0 0.0
2017-Jul-20 14:52N 52°57' E 004°46'0 0.0
2017-Jul-20 12:57N 52°57' E 004°46'0 0.0
2017-Jul-20 12:27N 52°57' E 004°46'0 0.0
2017-Jul-20 11:46N 52°57' E 004°46'0 0.0
2017-Jul-20 11:21N 52°57' E 004°46'0 0.0
2017-Jul-20 10:57N 52°57' E 004°46'0 0.0
2017-Jul-20 10:27N 52°57' E 004°46'0 0.0
2017-Jul-20 09:57N 52°57' E 004°46'0 0.0
2017-Jul-20 06:34N 52°58' E 004°46'0 0.0
2017-Jul-20 04:22N 52°58' E 004°46'0 0.0
2017-Jul-20 03:52N 52°58' E 004°46'0 0.0
2017-Jul-20 03:16N 52°58' E 004°46'0 0.0
2017-Jul-20 02:46N 52°58' E 004°46'0 0.0
2017-Jul-20 02:22N 52°58' E 004°46'0 0.0
2017-Jul-20 01:58N 52°58' E 004°46'0 0.0
2017-Jul-20 01:22N 52°58' E 004°46'0 0.0
2017-Jul-20 00:58N 52°58' E 004°46'0 0.0
2017-Jul-19 22:28N 52°58' E 004°46'0 0.0
2017-Jul-19 21:58N 52°58' E 004°46'0 0.0
2017-Jul-19 21:28N 52°58' E 004°46'0 0.0
2017-Jul-19 20:41N 52°58' E 004°46'0 0.0
2017-Jul-19 20:28N 52°58' E 004°46'0 0.0
2017-Jul-18 17:17N 52°58' E 004°46'0 0.0
2017-Jul-18 16:59N 52°58' E 004°46'0 0.0
2017-Jul-18 16:23N 52°58' E 004°46'  

Dump ship's entire track history